.
WxDataArchive / Data Records for 2014-12-15
2014-12-14 December 2014 2014-12-16

Data Records for Monday, 15 December 2014

Time	Temp	Chill	HIndex	Humid	Dewpt	 Wind 	HiWind	WindDir	Rain 	Barom
-----	----	-----	------	-----	-----	------	------	-------	-----	-----
00:00	43.8	43.8	43.8	89	40.8	0	0	---	0.00	30.076 
00:05	43.6	43.6	43.6	89	40.6	0	0	---	0.00	30.076 
00:10	43.6	43.6	43.6	90	40.9	0	0	---	0.00	30.076 
00:15	43.5	43.5	43.5	90	40.8	0	0	---	0.00	30.071 
00:20	43.5	43.5	43.5	90	40.8	0	0	---	0.00	30.071 
00:25	43.5	43.5	43.5	90	40.8	0	0	---	0.00	30.071 
00:30	43.3	43.3	43.3	90	40.6	0	0	---	0.00	30.071 
00:35	43.3	43.3	43.3	90	40.6	0	0	---	0.00	30.071 
00:40	43.2	43.2	43.2	90	40.5	0	0	---	0.00	30.071 
00:45	43.2	43.2	43.2	90	40.5	0	0	---	0.00	30.069 
00:50	43.2	43.2	43.2	90	40.5	0	1	270	0.00	30.069 
00:55	43.1	43.1	43.1	90	40.4	0	0	---	0.00	30.069 
01:00	43.1	43.1	43.1	90	40.4	0	0	---	0.00	30.069 
01:05	42.9	42.9	42.9	91	40.5	0	0	---	0.00	30.069 
01:10	42.9	42.9	42.9	91	40.5	0	1	270	0.00	30.069 
01:15	42.8	42.8	42.8	91	40.4	0	0	---	0.00	30.059 
01:20	42.6	42.6	42.6	91	40.2	0	0	---	0.00	30.059 
01:25	42.6	42.6	42.6	91	40.2	0	0	---	0.00	30.059 
01:30	42.5	42.5	42.5	91	40.1	0	1	270	0.00	30.058 
01:35	42.5	42.5	42.5	91	40.1	0	0	---	0.00	30.058 
01:40	42.5	42.5	42.5	91	40.1	0	0	---	0.00	30.058 
01:45	42.3	42.3	42.3	91	39.9	0	1	270	0.00	30.058 
01:50	42.3	42.3	42.3	91	39.9	0	0	---	0.00	30.058 
01:55	42.3	42.3	42.3	91	39.9	0	1	270	0.00	30.058 
02:00	42.2	42.2	42.2	92	40.0	0	0	---	0.00	30.058 
02:05	42.2	42.2	42.2	92	40.0	0	1	270	0.00	30.058 
02:10	42.2	42.2	42.2	92	40.0	0	1	270	0.00	30.058 
02:15	42.1	42.1	42.1	92	39.9	0	1	270	0.00	30.057 
02:20	42.1	42.1	42.1	92	39.9	0	1	270	0.00	30.057 
02:25	42.1	42.1	42.1	92	39.9	0	1	270	0.00	30.057 
02:30	42.1	42.1	42.1	92	39.9	0	0	---	0.00	30.059 
02:35	42.1	42.1	42.1	92	39.9	0	1	270	0.00	30.059 
02:40	42.1	42.1	42.1	92	39.9	0	2	270	0.00	30.059 
02:45	42.1	42.1	42.1	92	39.9	0	1	270	0.00	30.059 
02:50	42.1	42.1	42.1	92	39.9	0	2	270	0.00	30.059 
02:55	42.1	42.1	42.1	92	39.9	0	1	270	0.00	30.059 
03:00	42.2	42.2	42.2	92	40.0	0	2	270	0.00	30.061 
03:05	42.2	42.2	42.2	92	40.0	0	2	270	0.00	30.061 
03:10	42.2	42.2	42.2	92	40.0	0	1	270	0.00	30.061 
03:15	42.2	42.2	42.2	92	40.0	0	1	270	0.00	30.059 
03:20	42.2	42.2	42.2	93	40.3	0	2	270	0.00	30.059 
03:25	42.2	42.2	42.2	93	40.3	0	2	270	0.00	30.059 
03:30	42.2	42.2	42.2	93	40.3	0	2	270	0.00	30.057 
03:35	42.2	42.2	42.2	93	40.3	0	1	270	0.00	30.057 
03:40	42.3	42.3	42.3	93	40.4	0	2	270	0.00	30.057 
03:45	42.3	42.3	42.3	93	40.4	0	3	270	0.00	30.050 
03:50	42.3	42.3	42.3	93	40.4	0	3	90	0.00	30.050 
03:55	42.3	42.3	42.3	93	40.4	0	1	90	0.00	30.050 
04:00	42.3	42.3	42.3	93	40.4	0	3	90	0.00	30.049 
04:05	42.3	42.3	42.3	93	40.4	0	2	90	0.00	30.049 
04:10	42.3	42.3	42.3	93	40.4	0	1	90	0.00	30.049 
04:15	42.3	42.3	42.3	93	40.4	1	3	90	0.00	30.042 
04:20	42.3	42.3	42.3	93	40.4	0	2	90	0.00	30.042 
04:25	42.3	42.3	42.3	93	40.4	0	4	90	0.00	30.042 
04:30	42.3	42.3	42.3	93	40.4	0	3	90	0.00	30.033 
04:35	42.3	42.3	42.3	93	40.4	0	2	90	0.00	30.033 
04:40	42.3	42.3	42.3	93	40.4	1	5	90	0.00	30.033 
04:45	42.3	42.3	42.3	93	40.4	0	3	90	0.00	30.027 
04:50	42.2	42.2	42.2	93	40.3	0	3	90	0.00	30.027 
04:55	42.2	42.2	42.2	93	40.3	0	1	292	0.00	30.027 
05:00	42.2	42.2	42.2	93	40.3	0	1	292	0.00	30.029 
05:05	42.2	42.2	42.2	93	40.3	1	5	270	0.00	30.029 
05:10	42.2	42.2	42.2	93	40.3	0	3	270	0.00	30.029 
05:15	42.2	42.2	42.2	93	40.3	1	6	248	0.00	30.032 
05:20	42.2	42.2	42.2	93	40.3	0	2	248	0.00	30.032 
05:25	42.2	42.2	42.2	93	40.3	0	3	248	0.00	30.032 
05:30	42.2	42.2	42.2	93	40.3	0	2	248	0.00	30.031 
05:35	42.2	42.2	42.2	93	40.3	0	3	248	0.00	30.031 
05:40	42.2	42.2	42.2	93	40.3	0	3	248	0.00	30.031 
05:45	42.2	42.2	42.2	93	40.3	0	1	248	0.00	30.031 
05:50	42.2	42.2	42.2	93	40.3	0	1	248	0.00	30.031 
05:55	42.2	42.2	42.2	93	40.3	0	1	248	0.00	30.031 
06:00	42.2	42.2	42.2	93	40.3	0	1	248	0.00	30.029 
06:05	42.2	42.2	42.2	93	40.3	0	1	248	0.00	30.029 
06:10	42.3	42.3	42.3	93	40.4	0	3	248	0.00	30.029 
06:15	42.3	42.3	42.3	93	40.4	0	2	22	0.00	30.030 
06:20	42.3	42.3	42.3	93	40.4	0	3	248	0.00	30.030 
06:25	42.3	42.3	42.3	93	40.4	1	4	248	0.00	30.030 
06:30	42.3	42.3	42.3	93	40.4	0	1	270	0.00	30.030 
06:35	42.3	42.3	42.3	93	40.4	0	2	270	0.00	30.030 
06:40	42.5	42.5	42.5	93	40.6	0	1	270	0.00	30.030 
06:45	42.5	42.5	42.5	93	40.6	0	1	270	0.00	30.027 
06:50	42.5	42.5	42.5	93	40.6	0	2	270	0.00	30.027 
06:55	42.5	42.5	42.5	93	40.6	0	1	270	0.00	30.027 
07:00	42.5	42.5	42.5	93	40.6	0	2	270	0.00	30.027 
07:05	42.6	42.6	42.6	93	40.7	0	1	270	0.00	30.027 
07:10	42.6	42.6	42.6	93	40.7	0	2	270	0.00	30.027 
07:15	42.6	42.6	42.6	93	40.7	0	2	270	0.00	30.029 
07:20	42.6	42.6	42.6	93	40.7	0	2	270	0.00	30.029 
07:25	42.6	42.6	42.6	93	40.7	0	3	270	0.00	30.029 
07:30	42.6	42.6	42.6	93	40.7	0	1	270	0.00	30.033 
07:35	42.8	42.8	42.8	93	40.9	0	4	270	0.00	30.033 
07:40	42.8	42.8	42.8	93	40.9	0	1	270	0.00	30.033 
07:45	42.8	42.8	42.8	93	40.9	0	1	270	0.00	30.030 
07:50	42.6	42.6	42.6	93	40.7	0	3	270	0.00	30.030 
07:55	42.6	42.6	42.6	93	40.7	0	2	270	0.00	30.030 
08:00	42.6	42.6	42.6	92	40.4	0	1	270	0.00	30.029 
08:05	42.8	42.8	42.8	92	40.6	0	2	270	0.00	30.029 
08:10	42.8	42.8	42.8	92	40.6	0	1	270	0.00	30.029 
08:15	42.8	42.8	42.8	92	40.6	0	3	68	0.00	30.024 
08:20	42.6	42.6	42.6	92	40.4	0	1	68	0.00	30.024 
08:25	42.6	42.6	42.6	92	40.4	0	1	68	0.00	30.024 
08:30	42.6	42.6	42.6	92	40.4	0	1	68	0.00	30.023 
08:35	42.6	42.6	42.6	92	40.4	0	2	68	0.00	30.023 
08:40	42.6	42.6	42.6	91	40.2	0	2	68	0.00	30.023 
08:45	42.5	42.5	42.5	91	40.1	0	2	68	0.00	30.017 
08:50	42.3	42.3	42.3	91	39.9	0	2	68	0.00	30.017 
08:55	42.3	42.3	42.3	91	39.9	0	1	68	0.00	30.017 
09:00	42.2	42.2	42.2	91	39.8	0	1	68	0.00	30.019 
09:05	42.2	42.2	42.2	91	39.8	0	3	68	0.00	30.019 
09:10	42.2	42.2	42.2	91	39.8	0	2	68	0.00	30.019 
09:15	42.3	42.3	42.3	91	39.9	0	2	68	0.00	30.018 
09:20	42.6	42.6	42.6	91	40.2	0	1	68	0.00	30.018 
09:25	42.8	42.8	42.8	90	40.1	0	2	68	0.00	30.018 
09:30	43.1	43.1	43.1	90	40.4	1	3	68	0.00	30.017 
09:35	43.2	43.2	43.2	89	40.2	0	3	68	0.00	30.017 
09:40	43.5	43.5	43.5	89	40.5	0	3	68	0.00	30.017 
09:45	43.6	43.6	43.6	88	40.3	1	6	90	0.00	30.018 
09:50	43.8	43.8	43.8	87	40.2	1	4	90	0.00	30.018 
09:55	43.9	43.9	43.9	86	40.0	0	3	90	0.00	30.018 
10:00	44.1	44.1	44.1	85	39.9	1	7	90	0.00	30.016 
10:05	44.1	44.1	44.1	84	39.6	1	4	270	0.00	30.016 
10:10	44.2	44.2	44.2	84	39.7	0	3	90	0.00	30.016 
10:15	44.2	44.2	44.2	83	39.4	1	4	270	0.00	30.015 
10:20	44.2	44.2	44.2	83	39.4	1	4	112	0.00	30.015 
10:25	44.1	44.1	44.1	82	39.0	1	5	90	0.00	30.015 
10:30	44.2	44.2	44.2	82	39.1	1	4	90	0.00	30.001 
10:35	44.2	44.2	44.2	81	38.7	1	6	90	0.00	30.001 
10:40	44.3	44.3	44.3	81	38.8	1	5	112	0.00	30.001 
10:45	44.3	44.3	44.3	80	38.5	2	7	90	0.00	29.999 
10:50	44.3	44.3	44.3	79	38.2	1	4	90	0.00	29.999 
10:55	44.5	44.5	44.5	79	38.4	1	6	112	0.00	29.999 
11:00	44.3	44.3	44.3	78	37.9	3	9	90	0.00	30.001 
11:05	44.5	44.5	44.5	79	38.4	1	4	68	0.00	30.001 
11:10	44.6	44.6	44.6	79	38.5	1	6	68	0.00	30.001 
11:15	44.6	44.6	44.6	78	38.2	2	6	112	0.00	29.999 
11:20	44.8	44.8	44.8	78	38.4	1	5	90	0.00	29.999 
11:25	44.9	44.9	44.9	79	38.8	2	6	112	0.00	29.999 
11:30	45.2	45.2	45.2	78	38.8	1	5	112	0.00	29.994 
11:35	45.4	45.4	45.4	77	38.6	2	7	90	0.00	29.994 
11:40	45.5	45.5	45.5	77	38.7	2	5	90	0.00	29.994 
11:45	45.7	45.7	45.7	76	38.6	2	7	112	0.00	29.983 
11:50	45.7	45.7	45.7	76	38.6	2	7	90	0.00	29.983 
11:55	45.7	45.7	45.7	76	38.6	1	7	112	0.00	29.983 
12:00	46.0	46.0	46.0	76	38.9	1	4	90	0.00	29.972 
12:05	46.1	46.1	46.1	75	38.6	2	6	112	0.00	29.972 
12:10	46.1	46.1	46.1	75	38.6	2	6	90	0.00	29.972 
12:15	46.4	46.4	46.4	76	39.3	1	6	90	0.00	29.967 
12:20	46.7	46.7	46.7	75	39.2	2	7	112	0.00	29.967 
12:25	46.8	46.8	46.8	75	39.3	2	7	112	0.00	29.967 
12:30	46.8	46.8	46.8	74	39.0	3	7	68	0.00	29.959 
12:35	47.0	47.0	47.0	74	39.1	3	12	68	0.00	29.959 
12:40	47.1	47.1	47.1	75	39.6	2	7	112	0.00	29.959 
12:45	47.3	47.3	47.3	73	39.1	3	6	90	0.00	29.952 
12:50	47.4	47.4	47.4	73	39.2	1	4	112	0.00	29.952 
12:55	47.7	47.7	47.7	74	39.8	2	9	112	0.00	29.952 
13:00	47.6	47.6	47.6	73	39.4	2	9	112	0.00	29.945 
13:05	47.6	47.6	47.6	74	39.7	3	9	112	0.00	29.945 
13:10	47.7	47.7	47.7	74	39.8	2	7	90	0.00	29.945 
13:15	47.9	47.9	47.9	74	40.0	2	6	90	0.00	29.926 
13:20	48.0	48.0	48.0	73	39.8	2	6	112	0.00	29.926 
13:25	48.0	48.0	48.0	73	39.8	2	9	90	0.00	29.926 
13:30	48.0	48.0	48.0	73	39.8	2	5	90	0.00	29.928 
13:35	48.3	48.3	48.3	74	40.4	2	5	90	0.00	29.928 
13:40	48.8	48.8	48.8	72	40.2	2	9	90	0.00	29.928 
13:45	48.9	48.9	48.9	71	39.9	2	6	68	0.00	29.918 
13:50	49.1	49.1	49.1	71	40.1	2	7	90	0.00	29.918 
13:55	49.2	49.2	49.2	70	39.8	2	10	112	0.00	29.918 
14:00	49.4	49.4	49.4	70	40.0	2	6	90	0.00	29.904 
14:05	49.5	49.5	49.5	70	40.1	2	5	90	0.00	29.904 
14:10	49.4	49.4	49.4	69	39.7	3	9	90	0.00	29.904 
14:15	49.1	49.1	49.1	69	39.4	3	7	90	0.00	29.891 
14:20	48.9	48.9	48.9	70	39.6	2	7	112	0.00	29.891 
14:25	48.8	48.8	48.8	70	39.5	3	7	90	0.00	29.891 
14:30	48.8	48.8	48.8	71	39.8	2	6	90	0.00	29.889 
14:35	48.8	48.8	48.8	70	39.5	3	7	90	0.00	29.889 
14:40	48.6	48.6	48.6	70	39.3	2	7	90	0.00	29.889 
14:45	48.3	48.3	48.3	71	39.3	3	7	90	0.00	29.873 
14:50	48.2	48.2	48.2	72	39.6	2	7	112	0.00	29.873 
14:55	48.2	48.2	48.2	72	39.6	2	7	90	0.00	29.873 
15:00	47.9	46.4	47.9	72	39.3	4	11	90	0.00	29.858 
15:05	47.4	47.4	47.4	73	39.2	3	7	112	0.00	29.858 
15:10	47.1	47.1	47.1	73	38.9	2	6	90	0.00	29.858 
15:15	46.8	46.8	46.8	74	39.0	2	5	45	0.00	29.872 
15:20	46.5	46.5	46.5	74	38.7	2	7	112	0.00	29.872 
15:25	46.4	46.4	46.4	75	38.9	2	7	112	0.00	29.872 
15:30	46.2	46.2	46.2	75	38.7	1	4	135	0.00	29.866 
15:35	46.2	46.2	46.2	75	38.7	3	5	112	0.00	29.866 
15:40	46.1	46.1	46.1	76	39.0	2	4	112	0.00	29.866 
15:45	46.1	46.1	46.1	76	39.0	2	5	112	0.00	29.862 
15:50	46.0	46.0	46.0	76	38.9	1	5	112	0.00	29.862 
15:55	46.0	46.0	46.0	76	38.9	2	4	112	0.00	29.862 
16:00	45.8	45.8	45.8	76	38.7	2	5	90	0.00	29.858 
16:05	45.8	45.8	45.8	76	38.7	1	5	90	0.00	29.858 
16:10	45.7	45.7	45.7	76	38.6	1	4	90	0.00	29.858 
16:15	45.7	45.7	45.7	77	38.9	0	3	90	0.00	29.855 
16:20	45.5	45.5	45.5	77	38.7	1	3	90	0.00	29.855 
16:25	45.5	45.5	45.5	77	38.7	1	3	90	0.00	29.855 
16:30	45.4	45.4	45.4	77	38.6	1	3	90	0.00	29.849 
16:35	45.4	45.4	45.4	77	38.6	1	5	90	0.00	29.849 
16:40	45.4	45.4	45.4	78	38.9	0	2	90	0.00	29.849 
16:45	45.2	45.2	45.2	78	38.8	0	2	90	0.00	29.858 
16:50	45.1	45.1	45.1	79	39.0	0	2	90	0.00	29.858 
16:55	44.9	44.9	44.9	79	38.8	0	2	90	0.00	29.858 
17:00	44.8	44.8	44.8	80	39.0	0	2	90	0.00	29.869 
17:05	44.8	44.8	44.8	80	39.0	1	4	90	0.00	29.869 
17:10	44.9	44.9	44.9	79	38.8	0	2	90	0.00	29.869 
17:15	44.9	44.9	44.9	79	38.8	0	2	90	0.00	29.857 
17:20	44.9	44.9	44.9	79	38.8	0	2	90	0.00	29.857 
17:25	44.9	44.9	44.9	79	38.8	0	2	90	0.00	29.857 
17:30	44.8	44.8	44.8	79	38.7	0	1	90	0.00	29.859 
17:35	44.8	44.8	44.8	79	38.7	0	1	90	0.00	29.859 
17:40	44.6	44.6	44.6	80	38.8	0	2	90	0.00	29.859 
17:45	44.6	44.6	44.6	80	38.8	0	1	90	0.00	29.855 
17:50	44.6	44.6	44.6	80	38.8	0	1	90	0.00	29.855 
17:55	44.6	44.6	44.6	80	38.8	0	0	---	0.00	29.855 
18:00	44.5	44.5	44.5	81	39.0	0	0	---	0.00	29.849 
18:05	44.5	44.5	44.5	81	39.0	0	1	90	0.00	29.849 
18:10	44.5	44.5	44.5	81	39.0	0	0	---	0.00	29.849 
18:15	44.5	44.5	44.5	82	39.4	0	0	---	0.00	29.841 
18:20	44.3	44.3	44.3	82	39.2	0	1	90	0.00	29.841 
18:25	44.3	44.3	44.3	82	39.2	0	1	90	0.00	29.841 
18:30	44.3	44.3	44.3	82	39.2	1	3	90	0.00	29.832 
18:35	44.3	44.3	44.3	82	39.2	1	2	90	0.00	29.832 
18:40	44.3	44.3	44.3	82	39.2	0	0	---	0.00	29.832 
18:45	44.3	44.3	44.3	82	39.2	0	0	---	0.00	29.839 
18:50	44.3	44.3	44.3	82	39.2	1	2	90	0.00	29.839 
18:55	44.5	44.5	44.5	83	39.7	1	3	90	0.00	29.839 
19:00	44.5	44.5	44.5	83	39.7	1	3	90	0.00	29.819 
19:05	44.5	44.5	44.5	83	39.7	1	4	90	0.00	29.819 
19:10	44.3	44.3	44.3	83	39.5	0	1	90	0.00	29.819 
19:15	44.3	44.3	44.3	84	39.8	0	2	90	0.00	29.817 
19:20	44.3	44.3	44.3	84	39.8	0	2	90	0.00	29.817 
19:25	44.3	44.3	44.3	84	39.8	0	2	90	0.00	29.817 
19:30	44.5	44.5	44.5	84	40.0	1	3	90	0.00	29.813 
19:35	44.5	44.5	44.5	84	40.0	0	2	90	0.00	29.813 
19:40	44.6	44.6	44.6	83	39.8	1	3	90	0.00	29.813 
19:45	44.6	44.6	44.6	83	39.8	0	2	90	0.00	29.826 
19:50	44.6	44.6	44.6	84	40.1	0	1	90	0.01	29.826 
19:55	44.6	44.6	44.6	85	40.4	0	2	90	0.02	29.826 
20:00	44.5	44.5	44.5	86	40.6	0	0	---	0.02	29.827 
20:05	44.3	44.3	44.3	86	40.4	0	0	---	0.01	29.827 
20:10	44.2	44.2	44.2	87	40.6	0	1	90	0.01	29.827 
20:15	44.1	44.1	44.1	88	40.8	0	2	90	0.01	29.827 
20:20	43.9	43.9	43.9	88	40.6	2	4	90	0.02	29.827 
20:25	43.8	43.8	43.8	89	40.8	2	4	90	0.00	29.827 
20:30	43.8	43.8	43.8	90	41.1	0	2	90	0.01	29.812 
20:35	43.8	43.8	43.8	90	41.1	0	2	90	0.00	29.812 
20:40	43.6	43.6	43.6	90	40.9	0	2	90	0.00	29.812 
20:45	43.6	43.6	43.6	91	41.1	1	2	90	0.01	29.809 
20:50	43.6	43.6	43.6	91	41.1	0	2	90	0.01	29.809 
20:55	43.6	43.6	43.6	91	41.1	1	3	90	0.02	29.809 
21:00	43.5	43.5	43.5	92	41.3	1	3	90	0.00	29.792 
21:05	43.5	43.5	43.5	92	41.3	1	2	90	0.01	29.792 
21:10	43.3	43.3	43.3	92	41.1	0	2	90	0.01	29.792 
21:15	43.5	43.5	43.5	92	41.3	0	2	90	0.00	29.785 
21:20	43.5	43.5	43.5	92	41.3	1	3	90	0.01	29.785 
21:25	43.5	43.5	43.5	92	41.3	0	1	90	0.01	29.785 
21:30	43.5	43.5	43.5	92	41.3	0	2	90	0.00	29.794 
21:35	43.5	43.5	43.5	92	41.3	0	0	---	0.02	29.794 
21:40	43.5	43.5	43.5	93	41.6	1	3	90	0.02	29.794 
21:45	43.5	43.5	43.5	93	41.6	1	5	90	0.02	29.788 
21:50	43.5	43.5	43.5	93	41.6	1	3	90	0.02	29.788 
21:55	43.5	43.5	43.5	93	41.6	1	3	90	0.01	29.788 
22:00	43.5	43.5	43.5	93	41.6	1	3	90	0.01	29.780 
22:05	43.5	43.5	43.5	93	41.6	1	3	90	0.00	29.780 
22:10	43.5	43.5	43.5	93	41.6	1	4	90	0.01	29.780 
22:15	43.5	43.5	43.5	93	41.6	1	3	90	0.00	29.776 
22:20	43.5	43.5	43.5	93	41.6	1	4	112	0.00	29.776 
22:25	43.5	43.5	43.5	93	41.6	0	2	112	0.00	29.776 
22:30	43.3	43.3	43.3	93	41.4	0	2	112	0.00	29.770 
22:35	43.3	43.3	43.3	93	41.4	1	3	112	0.00	29.770 
22:40	43.3	43.3	43.3	94	41.7	1	3	112	0.01	29.770 
22:45	43.3	43.3	43.3	94	41.7	1	4	112	0.01	29.763 
22:50	43.3	43.3	43.3	94	41.7	0	1	112	0.00	29.763 
22:55	43.3	43.3	43.3	94	41.7	0	1	112	0.00	29.763 
23:00	43.3	43.3	43.3	94	41.7	0	3	112	0.00	29.759 
23:05	43.3	43.3	43.3	94	41.7	0	2	112	0.00	29.759 
23:10	43.3	43.3	43.3	94	41.7	0	2	112	0.00	29.759 
23:15	43.3	43.3	43.3	94	41.7	0	2	112	0.00	29.749 
23:20	43.3	43.3	43.3	94	41.7	0	1	112	0.00	29.749 
23:25	43.3	43.3	43.3	94	41.7	0	1	112	0.00	29.749 
23:30	43.3	43.3	43.3	94	41.7	0	3	112	0.00	29.747 
23:35	43.3	43.3	43.3	94	41.7	0	2	112	0.00	29.747 
23:40	43.3	43.3	43.3	94	41.7	0	2	112	0.00	29.747 
23:45	43.3	43.3	43.3	94	41.7	0	2	112	0.00	29.735 
23:50	43.3	43.3	43.3	94	41.7	0	1	112	0.00	29.735 
23:55	43.3	43.3	43.3	94	41.7	0	2	112	0.00	29.735 

CoCoRaHS
IN-AL-39
A2 Web Hosting
Creative Commons License
GoDaddy
search engine by freefind advanced

loaded 2018-11-19 18:51:08 • last modified 2010-11-18 10:43:29
Privacy PolicyDisclaimer
• wx.awcolley.com is powered by PmWiki v.2002016 •
• all content (unless otherwise noted) © 2018 A W Colley